sensor_id;sensor_type;location;lat;lon;timestamp;P1;durP1;ratioP1;P2;durP2;ratioP2
78549;SDS011;68091;52.130;5.570;2023-03-04T00:01:44;21.95;;;3.35;;
78549;SDS011;68091;52.130;5.570;2023-03-04T00:04:11;15.57;;;2.67;;
78549;SDS011;68091;52.130;5.570;2023-03-04T00:06:37;23.70;;;3.08;;
78549;SDS011;68091;52.130;5.570;2023-03-04T00:09:05;23.45;;;3.65;;
78549;SDS011;68091;52.130;5.570;2023-03-04T00:11:34;25.60;;;3.38;;
78549;SDS011;68091;52.130;5.570;2023-03-04T00:14:00;22.20;;;3.05;;
78549;SDS011;68091;52.130;5.570;2023-03-04T00:16:25;20.33;;;4.38;;
78549;SDS011;68091;52.130;5.570;2023-03-04T00:18:52;20.33;;;2.67;;
78549;SDS011;68091;52.130;5.570;2023-03-04T00:21:19;32.00;;;3.47;;
78549;SDS011;68091;52.130;5.570;2023-03-04T00:23:45;23.80;;;3.97;;
78549;SDS011;68091;52.130;5.570;2023-03-04T00:26:11;23.10;;;4.03;;
78549;SDS011;68091;52.130;5.570;2023-03-04T00:28:38;16.88;;;2.50;;
78549;SDS011;68091;52.130;5.570;2023-03-04T00:31:04;19.75;;;2.50;;
78549;SDS011;68091;52.130;5.570;2023-03-04T00:33:30;27.30;;;3.58;;
78549;SDS011;68091;52.130;5.570;2023-03-04T00:35:56;22.30;;;2.97;;
78549;SDS011;68091;52.130;5.570;2023-03-04T00:38:22;21.10;;;2.65;;
78549;SDS011;68091;52.130;5.570;2023-03-04T00:40:48;21.23;;;2.72;;
78549;SDS011;68091;52.130;5.570;2023-03-04T00:43:14;19.30;;;3.40;;
78549;SDS011;68091;52.130;5.570;2023-03-04T00:45:39;25.67;;;3.47;;
78549;SDS011;68091;52.130;5.570;2023-03-04T00:48:11;20.27;;;2.83;;
78549;SDS011;68091;52.130;5.570;2023-03-04T00:50:37;15.98;;;2.30;;
78549;SDS011;68091;52.130;5.570;2023-03-04T00:53:03;15.93;;;3.42;;
78549;SDS011;68091;52.130;5.570;2023-03-04T00:55:29;17.05;;;3.17;;
78549;SDS011;68091;52.130;5.570;2023-03-04T00:57:55;26.92;;;4.38;;
78549;SDS011;68091;52.130;5.570;2023-03-04T01:00:21;27.17;;;3.33;;
78549;SDS011;68091;52.130;5.570;2023-03-04T01:02:47;28.45;;;3.80;;
78549;SDS011;68091;52.130;5.570;2023-03-04T01:05:13;24.67;;;3.70;;
78549;SDS011;68091;52.130;5.570;2023-03-04T01:07:38;22.63;;;2.83;;
78549;SDS011;68091;52.130;5.570;2023-03-04T01:10:05;16.58;;;2.80;;
78549;SDS011;68091;52.130;5.570;2023-03-04T01:12:32;23.38;;;3.65;;
78549;SDS011;68091;52.130;5.570;2023-03-04T01:14:58;23.17;;;3.97;;
78549;SDS011;68091;52.130;5.570;2023-03-04T01:17:24;24.45;;;3.08;;
78549;SDS011;68091;52.130;5.570;2023-03-04T01:19:50;19.95;;;3.92;;
78549;SDS011;68091;52.130;5.570;2023-03-04T01:22:15;19.23;;;3.10;;
78549;SDS011;68091;52.130;5.570;2023-03-04T01:24:43;17.83;;;3.05;;
78549;SDS011;68091;52.130;5.570;2023-03-04T01:27:09;25.60;;;3.10;;
78549;SDS011;68091;52.130;5.570;2023-03-04T01:29:35;22.98;;;3.53;;
78549;SDS011;68091;52.130;5.570;2023-03-04T01:32:00;15.10;;;2.90;;
78549;SDS011;68091;52.130;5.570;2023-03-04T01:34:26;23.52;;;2.80;;
78549;SDS011;68091;52.130;5.570;2023-03-04T01:36:52;19.48;;;3.10;;
78549;SDS011;68091;52.130;5.570;2023-03-04T01:39:17;23.17;;;2.90;;
78549;SDS011;68091;52.130;5.570;2023-03-04T01:41:43;17.20;;;3.03;;
78549;SDS011;68091;52.130;5.570;2023-03-04T01:44:09;15.95;;;2.90;;
78549;SDS011;68091;52.130;5.570;2023-03-04T01:46:36;25.10;;;3.78;;
78549;SDS011;68091;52.130;5.570;2023-03-04T01:49:05;23.65;;;3.30;;
78549;SDS011;68091;52.130;5.570;2023-03-04T01:51:31;20.63;;;2.60;;
78549;SDS011;68091;52.130;5.570;2023-03-04T01:53:56;23.95;;;2.50;;
78549;SDS011;68091;52.130;5.570;2023-03-04T01:56:29;24.58;;;3.42;;
78549;SDS011;68091;52.130;5.570;2023-03-04T02:01:52;22.67;;;2.72;;
78549;SDS011;68091;52.130;5.570;2023-03-04T02:04:20;18.08;;;2.83;;
78549;SDS011;68091;52.130;5.570;2023-03-04T02:06:49;20.92;;;2.50;;
78549;SDS011;68091;52.130;5.570;2023-03-04T02:09:15;13.90;;;2.40;;
78549;SDS011;68091;52.130;5.570;2023-03-04T02:11:42;20.65;;;3.28;;
78549;SDS011;68091;52.130;5.570;2023-03-04T02:14:09;21.02;;;3.15;;
78549;SDS011;68091;52.130;5.570;2023-03-04T02:16:36;20.88;;;2.97;;
78549;SDS011;68091;52.130;5.570;2023-03-04T02:19:04;17.95;;;3.08;;
78549;SDS011;68091;52.130;5.570;2023-03-04T02:21:32;13.82;;;2.25;;
78549;SDS011;68091;52.130;5.570;2023-03-04T02:26:33;18.48;;;3.33;;
78549;SDS011;68091;52.130;5.570;2023-03-04T02:29:00;16.33;;;2.75;;
78549;SDS011;68091;52.130;5.570;2023-03-04T02:31:32;26.02;;;3.45;;
78549;SDS011;68091;52.130;5.570;2023-03-04T02:34:04;25.63;;;3.10;;
78549;SDS011;68091;52.130;5.570;2023-03-04T02:36:38;33.10;;;4.40;;
78549;SDS011;68091;52.130;5.570;2023-03-04T02:41:55;21.58;;;4.40;;
78549;SDS011;68091;52.130;5.570;2023-03-04T02:44:25;16.55;;;2.53;;
78549;SDS011;68091;52.130;5.570;2023-03-04T02:46:56;18.33;;;3.03;;
78549;SDS011;68091;52.130;5.570;2023-03-04T02:49:23;16.40;;;2.80;;
78549;SDS011;68091;52.130;5.570;2023-03-04T02:52:01;19.92;;;2.88;;
78549;SDS011;68091;52.130;5.570;2023-03-04T02:54:47;12.40;;;2.33;;
78549;SDS011;68091;52.130;5.570;2023-03-04T02:57:13;26.90;;;3.67;;
78549;SDS011;68091;52.130;5.570;2023-03-04T02:59:40;22.13;;;2.70;;
78549;SDS011;68091;52.130;5.570;2023-03-04T03:02:06;18.90;;;2.17;;
78549;SDS011;68091;52.130;5.570;2023-03-04T03:04:33;15.23;;;2.70;;
78549;SDS011;68091;52.130;5.570;2023-03-04T03:07:02;25.83;;;3.55;;
78549;SDS011;68091;52.130;5.570;2023-03-04T03:09:28;22.00;;;2.58;;
78549;SDS011;68091;52.130;5.570;2023-03-04T03:11:53;18.10;;;2.47;;
78549;SDS011;68091;52.130;5.570;2023-03-04T03:14:19;19.25;;;2.45;;
78549;SDS011;68091;52.130;5.570;2023-03-04T03:16:45;19.23;;;4.00;;
78549;SDS011;68091;52.130;5.570;2023-03-04T03:19:11;25.45;;;2.80;;
78549;SDS011;68091;52.130;5.570;2023-03-04T03:21:39;18.05;;;2.53;;
78549;SDS011;68091;52.130;5.570;2023-03-04T03:24:05;17.30;;;2.65;;
78549;SDS011;68091;52.130;5.570;2023-03-04T03:26:33;18.70;;;2.78;;
78549;SDS011;68091;52.130;5.570;2023-03-04T03:28:59;19.55;;;3.00;;
78549;SDS011;68091;52.130;5.570;2023-03-04T03:31:25;13.80;;;2.85;;
78549;SDS011;68091;52.130;5.570;2023-03-04T03:33:50;15.77;;;2.83;;
78549;SDS011;68091;52.130;5.570;2023-03-04T03:36:16;23.35;;;2.88;;
78549;SDS011;68091;52.130;5.570;2023-03-04T03:38:42;13.43;;;2.58;;
78549;SDS011;68091;52.130;5.570;2023-03-04T03:41:08;19.40;;;2.63;;
78549;SDS011;68091;52.130;5.570;2023-03-04T03:43:34;19.70;;;2.67;;
78549;SDS011;68091;52.130;5.570;2023-03-04T03:45:59;16.98;;;2.65;;
78549;SDS011;68091;52.130;5.570;2023-03-04T03:48:31;10.75;;;1.95;;
78549;SDS011;68091;52.130;5.570;2023-03-04T03:50:57;18.38;;;2.72;;
78549;SDS011;68091;52.130;5.570;2023-03-04T03:53:26;15.80;;;2.95;;
78549;SDS011;68091;52.130;5.570;2023-03-04T03:55:51;14.18;;;2.30;;
78549;SDS011;68091;52.130;5.570;2023-03-04T03:58:20;16.95;;;2.88;;
78549;SDS011;68091;52.130;5.570;2023-03-04T04:00:47;13.90;;;2.30;;
78549;SDS011;68091;52.130;5.570;2023-03-04T04:03:16;18.08;;;2.25;;
78549;SDS011;68091;52.130;5.570;2023-03-04T04:05:42;20.55;;;2.45;;
78549;SDS011;68091;52.130;5.570;2023-03-04T04:08:15;16.02;;;3.20;;
78549;SDS011;68091;52.130;5.570;2023-03-04T04:10:41;13.15;;;2.30;;
78549;SDS011;68091;52.130;5.570;2023-03-04T04:13:07;15.15;;;2.38;;
78549;SDS011;68091;52.130;5.570;2023-03-04T04:15:33;18.25;;;2.15;;
78549;SDS011;68091;52.130;5.570;2023-03-04T04:18:00;13.32;;;2.42;;
78549;SDS011;68091;52.130;5.570;2023-03-04T04:20:26;22.98;;;2.30;;
78549;SDS011;68091;52.130;5.570;2023-03-04T04:22:52;35.92;;;3.60;;
78549;SDS011;68091;52.130;5.570;2023-03-04T04:25:18;18.23;;;3.03;;
78549;SDS011;68091;52.130;5.570;2023-03-04T04:27:44;15.32;;;2.20;;
78549;SDS011;68091;52.130;5.570;2023-03-04T04:30:10;17.45;;;2.15;;
78549;SDS011;68091;52.130;5.570;2023-03-04T04:32:36;23.85;;;2.33;;
78549;SDS011;68091;52.130;5.570;2023-03-04T04:35:01;15.18;;;2.28;;
78549;SDS011;68091;52.130;5.570;2023-03-04T04:37:27;12.75;;;2.25;;
78549;SDS011;68091;52.130;5.570;2023-03-04T04:39:53;11.32;;;2.20;;
78549;SDS011;68091;52.130;5.570;2023-03-04T04:42:20;10.82;;;2.05;;
78549;SDS011;68091;52.130;5.570;2023-03-04T04:44:46;15.18;;;2.22;;
78549;SDS011;68091;52.130;5.570;2023-03-04T04:47:12;13.32;;;2.47;;
78549;SDS011;68091;52.130;5.570;2023-03-04T04:49:38;10.35;;;2.20;;
78549;SDS011;68091;52.130;5.570;2023-03-04T04:52:04;23.40;;;3.15;;
78549;SDS011;68091;52.130;5.570;2023-03-04T04:54:29;12.07;;;2.05;;
78549;SDS011;68091;52.130;5.570;2023-03-04T04:56:55;17.67;;;2.25;;
78549;SDS011;68091;52.130;5.570;2023-03-04T04:59:21;15.20;;;2.15;;
78549;SDS011;68091;52.130;5.570;2023-03-04T05:01:47;13.07;;;2.05;;
78549;SDS011;68091;52.130;5.570;2023-03-04T05:04:12;19.92;;;2.85;;
78549;SDS011;68091;52.130;5.570;2023-03-04T05:06:38;17.90;;;2.58;;
78549;SDS011;68091;52.130;5.570;2023-03-04T05:09:04;16.20;;;3.08;;
78549;SDS011;68091;52.130;5.570;2023-03-04T05:11:31;16.58;;;3.55;;
78549;SDS011;68091;52.130;5.570;2023-03-04T05:13:57;19.67;;;2.63;;
78549;SDS011;68091;52.130;5.570;2023-03-04T05:16:23;14.60;;;1.90;;
78549;SDS011;68091;52.130;5.570;2023-03-04T05:18:48;24.17;;;3.13;;
78549;SDS011;68091;52.130;5.570;2023-03-04T05:21:14;14.30;;;2.08;;
78549;SDS011;68091;52.130;5.570;2023-03-04T05:23:40;15.02;;;2.40;;
78549;SDS011;68091;52.130;5.570;2023-03-04T05:26:12;18.45;;;2.70;;
78549;SDS011;68091;52.130;5.570;2023-03-04T05:28:39;16.60;;;3.25;;
78549;SDS011;68091;52.130;5.570;2023-03-04T05:31:05;16.88;;;2.33;;
78549;SDS011;68091;52.130;5.570;2023-03-04T05:33:31;12.73;;;2.35;;
78549;SDS011;68091;52.130;5.570;2023-03-04T05:35:56;18.40;;;3.13;;
78549;SDS011;68091;52.130;5.570;2023-03-04T05:38:22;17.00;;;2.88;;
78549;SDS011;68091;52.130;5.570;2023-03-04T05:40:53;25.40;;;3.15;;
78549;SDS011;68091;52.130;5.570;2023-03-04T05:43:24;14.23;;;2.42;;
78549;SDS011;68091;52.130;5.570;2023-03-04T05:45:51;18.08;;;2.65;;
78549;SDS011;68091;52.130;5.570;2023-03-04T05:48:17;7.90;;;1.80;;
78549;SDS011;68091;52.130;5.570;2023-03-04T05:50:43;12.50;;;1.95;;
78549;SDS011;68091;52.130;5.570;2023-03-04T05:53:09;13.07;;;2.17;;
78549;SDS011;68091;52.130;5.570;2023-03-04T05:55:35;13.93;;;2.22;;
78549;SDS011;68091;52.130;5.570;2023-03-04T05:58:01;22.27;;;2.28;;
78549;SDS011;68091;52.130;5.570;2023-03-04T06:00:26;11.75;;;1.80;;
78549;SDS011;68091;52.130;5.570;2023-03-04T06:02:52;12.57;;;2.33;;
78549;SDS011;68091;52.130;5.570;2023-03-04T06:05:18;13.68;;;2.20;;
78549;SDS011;68091;52.130;5.570;2023-03-04T06:07:45;24.25;;;2.30;;
78549;SDS011;68091;52.130;5.570;2023-03-04T06:10:12;13.32;;;2.28;;
78549;SDS011;68091;52.130;5.570;2023-03-04T06:12:40;12.45;;;1.83;;
78549;SDS011;68091;52.130;5.570;2023-03-04T06:15:06;13.20;;;2.53;;
78549;SDS011;68091;52.130;5.570;2023-03-04T06:17:34;14.82;;;2.58;;
78549;SDS011;68091;52.130;5.570;2023-03-04T06:20:00;12.73;;;2.65;;
78549;SDS011;68091;52.130;5.570;2023-03-04T06:22:26;14.15;;;2.40;;
78549;SDS011;68091;52.130;5.570;2023-03-04T06:24:52;19.50;;;3.55;;
78549;SDS011;68091;52.130;5.570;2023-03-04T06:27:17;13.18;;;2.10;;
78549;SDS011;68091;52.130;5.570;2023-03-04T06:29:43;17.95;;;3.28;;
78549;SDS011;68091;52.130;5.570;2023-03-04T06:32:09;16.33;;;3.42;;
78549;SDS011;68091;52.130;5.570;2023-03-04T06:34:35;15.48;;;2.75;;
78549;SDS011;68091;52.130;5.570;2023-03-04T06:37:01;12.55;;;2.63;;
78549;SDS011;68091;52.130;5.570;2023-03-04T06:39:26;21.83;;;3.22;;
78549;SDS011;68091;52.130;5.570;2023-03-04T06:41:52;16.00;;;6.57;;
78549;SDS011;68091;52.130;5.570;2023-03-04T06:44:18;15.98;;;3.20;;
78549;SDS011;68091;52.130;5.570;2023-03-04T06:46:44;18.65;;;4.88;;
78549;SDS011;68091;52.130;5.570;2023-03-04T06:49:10;10.48;;;2.08;;
78549;SDS011;68091;52.130;5.570;2023-03-04T06:51:36;10.65;;;2.20;;
78549;SDS011;68091;52.130;5.570;2023-03-04T06:54:02;15.57;;;2.63;;
78549;SDS011;68091;52.130;5.570;2023-03-04T06:56:27;12.32;;;2.03;;
78549;SDS011;68091;52.130;5.570;2023-03-04T06:58:53;16.92;;;2.38;;
78549;SDS011;68091;52.130;5.570;2023-03-04T07:01:20;8.82;;;2.22;;
78549;SDS011;68091;52.130;5.570;2023-03-04T07:03:48;17.67;;;3.08;;
78549;SDS011;68091;52.130;5.570;2023-03-04T07:06:16;9.20;;;2.20;;
78549;SDS011;68091;52.130;5.570;2023-03-04T07:08:43;14.77;;;2.42;;
78549;SDS011;68091;52.130;5.570;2023-03-04T07:11:09;13.85;;;3.35;;
78549;SDS011;68091;52.130;5.570;2023-03-04T07:13:35;13.95;;;2.28;;
78549;SDS011;68091;52.130;5.570;2023-03-04T07:16:06;18.77;;;2.53;;
78549;SDS011;68091;52.130;5.570;2023-03-04T07:18:33;13.20;;;2.03;;
78549;SDS011;68091;52.130;5.570;2023-03-04T07:21:00;9.90;;;1.95;;
78549;SDS011;68091;52.130;5.570;2023-03-04T07:23:26;14.38;;;2.40;;
78549;SDS011;68091;52.130;5.570;2023-03-04T07:25:52;17.25;;;2.72;;
78549;SDS011;68091;52.130;5.570;2023-03-04T07:28:17;15.30;;;2.10;;
78549;SDS011;68091;52.130;5.570;2023-03-04T07:30:43;16.35;;;2.60;;
78549;SDS011;68091;52.130;5.570;2023-03-04T07:33:09;17.20;;;2.35;;
78549;SDS011;68091;52.130;5.570;2023-03-04T07:35:35;13.50;;;2.80;;
78549;SDS011;68091;52.130;5.570;2023-03-04T07:38:01;11.20;;;1.95;;
78549;SDS011;68091;52.130;5.570;2023-03-04T07:40:27;17.98;;;3.10;;
78549;SDS011;68091;52.130;5.570;2023-03-04T07:42:54;18.40;;;2.40;;
78549;SDS011;68091;52.130;5.570;2023-03-04T07:45:21;11.93;;;2.33;;
78549;SDS011;68091;52.130;5.570;2023-03-04T07:47:47;19.23;;;3.63;;
78549;SDS011;68091;52.130;5.570;2023-03-04T07:50:13;17.80;;;3.05;;
78549;SDS011;68091;52.130;5.570;2023-03-04T07:52:40;14.68;;;1.88;;
78549;SDS011;68091;52.130;5.570;2023-03-04T07:55:10;15.52;;;2.78;;
78549;SDS011;68091;52.130;5.570;2023-03-04T07:57:38;11.50;;;1.95;;
78549;SDS011;68091;52.130;5.570;2023-03-04T08:00:08;17.00;;;2.30;;
78549;SDS011;68091;52.130;5.570;2023-03-04T08:02:35;18.42;;;3.15;;
78549;SDS011;68091;52.130;5.570;2023-03-04T08:05:00;10.10;;;1.83;;
78549;SDS011;68091;52.130;5.570;2023-03-04T08:07:26;14.90;;;2.25;;
78549;SDS011;68091;52.130;5.570;2023-03-04T08:09:52;10.90;;;3.38;;
78549;SDS011;68091;52.130;5.570;2023-03-04T08:12:23;7.30;;;1.90;;
78549;SDS011;68091;52.130;5.570;2023-03-04T08:14:53;9.73;;;2.13;;
78549;SDS011;68091;52.130;5.570;2023-03-04T08:17:19;11.55;;;2.05;;
78549;SDS011;68091;52.130;5.570;2023-03-04T08:19:45;8.50;;;1.75;;
78549;SDS011;68091;52.130;5.570;2023-03-04T08:22:11;10.75;;;1.90;;
78549;SDS011;68091;52.130;5.570;2023-03-04T08:24:37;9.05;;;2.25;;
78549;SDS011;68091;52.130;5.570;2023-03-04T08:27:02;11.65;;;2.03;;
78549;SDS011;68091;52.130;5.570;2023-03-04T08:29:28;12.95;;;2.25;;
78549;SDS011;68091;52.130;5.570;2023-03-04T08:31:54;10.82;;;2.45;;
78549;SDS011;68091;52.130;5.570;2023-03-04T08:34:24;7.03;;;1.83;;
78549;SDS011;68091;52.130;5.570;2023-03-04T08:36:52;7.72;;;1.80;;
78549;SDS011;68091;52.130;5.570;2023-03-04T08:39:18;13.68;;;2.20;;
78549;SDS011;68091;52.130;5.570;2023-03-04T08:41:44;6.13;;;1.70;;
78549;SDS011;68091;52.130;5.570;2023-03-04T08:44:11;10.20;;;2.10;;
78549;SDS011;68091;52.130;5.570;2023-03-04T08:46:38;8.80;;;1.70;;
78549;SDS011;68091;52.130;5.570;2023-03-04T08:49:05;12.63;;;2.03;;
78549;SDS011;68091;52.130;5.570;2023-03-04T08:51:32;6.28;;;1.80;;
78549;SDS011;68091;52.130;5.570;2023-03-04T08:53:59;12.65;;;1.92;;
78549;SDS011;68091;52.130;5.570;2023-03-04T08:56:29;10.13;;;2.05;;
78549;SDS011;68091;52.130;5.570;2023-03-04T08:58:54;9.20;;;2.17;;
78549;SDS011;68091;52.130;5.570;2023-03-04T09:01:20;12.82;;;2.30;;
78549;SDS011;68091;52.130;5.570;2023-03-04T09:03:46;9.02;;;1.88;;
78549;SDS011;68091;52.130;5.570;2023-03-04T09:06:15;9.38;;;2.22;;
78549;SDS011;68091;52.130;5.570;2023-03-04T09:08:42;6.78;;;1.88;;
78549;SDS011;68091;52.130;5.570;2023-03-04T09:11:09;9.70;;;2.17;;
78549;SDS011;68091;52.130;5.570;2023-03-04T09:13:35;8.90;;;2.05;;
78549;SDS011;68091;52.130;5.570;2023-03-04T09:16:01;8.10;;;1.88;;
78549;SDS011;68091;52.130;5.570;2023-03-04T09:18:27;14.23;;;2.40;;
78549;SDS011;68091;52.130;5.570;2023-03-04T09:20:53;5.82;;;1.85;;
78549;SDS011;68091;52.130;5.570;2023-03-04T09:23:19;8.23;;;2.30;;
78549;SDS011;68091;52.130;5.570;2023-03-04T09:25:45;7.43;;;1.45;;
78549;SDS011;68091;52.130;5.570;2023-03-04T09:28:13;8.60;;;1.70;;
78549;SDS011;68091;52.130;5.570;2023-03-04T09:30:39;6.53;;;1.85;;
78549;SDS011;68091;52.130;5.570;2023-03-04T09:33:06;8.15;;;1.95;;
78549;SDS011;68091;52.130;5.570;2023-03-04T09:35:32;4.90;;;1.63;;
78549;SDS011;68091;52.130;5.570;2023-03-04T09:37:58;5.53;;;1.40;;
78549;SDS011;68091;52.130;5.570;2023-03-04T09:40:29;4.80;;;1.60;;
78549;SDS011;68091;52.130;5.570;2023-03-04T09:43:16;4.95;;;1.73;;
78549;SDS011;68091;52.130;5.570;2023-03-04T09:45:48;7.20;;;1.88;;
78549;SDS011;68091;52.130;5.570;2023-03-04T09:48:19;9.18;;;1.75;;
78549;SDS011;68091;52.130;5.570;2023-03-04T09:56:29;7.45;;;1.77;;
78549;SDS011;68091;52.130;5.570;2023-03-04T10:06:40;4.60;;;1.30;;
78549;SDS011;68091;52.130;5.570;2023-03-04T10:09:11;6.15;;;1.73;;
78549;SDS011;68091;52.130;5.570;2023-03-04T10:11:43;6.80;;;1.92;;
78549;SDS011;68091;52.130;5.570;2023-03-04T10:17:06;9.10;;;1.70;;
78549;SDS011;68091;52.130;5.570;2023-03-04T10:25:04;8.15;;;1.58;;
78549;SDS011;68091;52.130;5.570;2023-03-04T10:33:28;8.63;;;1.40;;
78549;SDS011;68091;52.130;5.570;2023-03-04T10:38:24;8.50;;;1.38;;
78549;SDS011;68091;52.130;5.570;2023-03-04T10:40:50;3.75;;;1.17;;
78549;SDS011;68091;52.130;5.570;2023-03-04T10:43:17;2.60;;;1.33;;
78549;SDS011;68091;52.130;5.570;2023-03-04T10:45:44;5.07;;;1.42;;
78549;SDS011;68091;52.130;5.570;2023-03-04T10:48:44;6.85;;;1.38;;
78549;SDS011;68091;52.130;5.570;2023-03-04T10:53:48;7.63;;;1.85;;
78549;SDS011;68091;52.130;5.570;2023-03-04T11:02:00;4.32;;;1.15;;
78549;SDS011;68091;52.130;5.570;2023-03-04T11:04:35;5.55;;;0.90;;
78549;SDS011;68091;52.130;5.570;2023-03-04T11:07:01;3.88;;;1.15;;
78549;SDS011;68091;52.130;5.570;2023-03-04T11:09:31;8.00;;;1.30;;
78549;SDS011;68091;52.130;5.570;2023-03-04T11:11:58;5.32;;;1.10;;
78549;SDS011;68091;52.130;5.570;2023-03-04T11:14:39;3.25;;;0.90;;
78549;SDS011;68091;52.130;5.570;2023-03-04T11:17:23;5.88;;;1.30;;
78549;SDS011;68091;52.130;5.570;2023-03-04T11:22:49;4.10;;;1.27;;
78549;SDS011;68091;52.130;5.570;2023-03-04T11:25:26;7.72;;;1.90;;
78549;SDS011;68091;52.130;5.570;2023-03-04T11:27:55;3.80;;;1.60;;
78549;SDS011;68091;52.130;5.570;2023-03-04T11:30:40;7.65;;;1.50;;
78549;SDS011;68091;52.130;5.570;2023-03-04T11:38:42;9.10;;;1.63;;
78549;SDS011;68091;52.130;5.570;2023-03-04T11:41:45;8.18;;;2.05;;
78549;SDS011;68091;52.130;5.570;2023-03-04T11:44:10;4.38;;;1.40;;
78549;SDS011;68091;52.130;5.570;2023-03-04T11:46:48;10.80;;;1.88;;
78549;SDS011;68091;52.130;5.570;2023-03-04T12:12:46;10.15;;;2.00;;
78549;SDS011;68091;52.130;5.570;2023-03-04T12:14:50;16.50;;;2.20;;
78549;SDS011;68091;52.130;5.570;2023-03-04T12:28:17;11.07;;;2.13;;
78549;SDS011;68091;52.130;5.570;2023-03-04T12:44:41;14.43;;;2.55;;
78549;SDS011;68091;52.130;5.570;2023-03-04T12:52:47;10.95;;;2.58;;
78549;SDS011;68091;52.130;5.570;2023-03-04T12:55:20;13.18;;;2.17;;
78549;SDS011;68091;52.130;5.570;2023-03-04T12:57:50;12.35;;;3.03;;
78549;SDS011;68091;52.130;5.570;2023-03-04T13:11:00;10.77;;;2.20;;
78549;SDS011;68091;52.130;5.570;2023-03-04T13:13:45;11.93;;;2.15;;
78549;SDS011;68091;52.130;5.570;2023-03-04T13:19:03;12.90;;;2.60;;
78549;SDS011;68091;52.130;5.570;2023-03-04T13:25:01;10.68;;;2.33;;
78549;SDS011;68091;52.130;5.570;2023-03-04T13:28:01;18.88;;;2.33;;
78549;SDS011;68091;52.130;5.570;2023-03-04T13:30:41;17.73;;;3.28;;
78549;SDS011;68091;52.130;5.570;2023-03-04T13:36:02;17.35;;;2.70;;
78549;SDS011;68091;52.130;5.570;2023-03-04T13:38:33;16.30;;;2.83;;
78549;SDS011;68091;52.130;5.570;2023-03-04T13:43:49;23.63;;;3.05;;
78549;SDS011;68091;52.130;5.570;2023-03-04T13:51:17;11.77;;;2.05;;
78549;SDS011;68091;52.130;5.570;2023-03-04T13:56:40;14.75;;;1.70;;
78549;SDS011;68091;52.130;5.570;2023-03-04T14:02:11;11.57;;;2.40;;
78549;SDS011;68091;52.130;5.570;2023-03-04T14:09:54;10.02;;;1.80;;
78549;SDS011;68091;52.130;5.570;2023-03-04T14:15:28;6.55;;;1.30;;
78549;SDS011;68091;52.130;5.570;2023-03-04T14:17:55;7.18;;;1.48;;
78549;SDS011;68091;52.130;5.570;2023-03-04T14:20:30;6.28;;;1.30;;
78549;SDS011;68091;52.130;5.570;2023-03-04T14:22:59;10.20;;;1.70;;
78549;SDS011;68091;52.130;5.570;2023-03-04T14:30:42;5.75;;;1.55;;
78549;SDS011;68091;52.130;5.570;2023-03-04T14:33:26;3.90;;;0.90;;
78549;SDS011;68091;52.130;5.570;2023-03-04T14:35:54;8.30;;;1.40;;
78549;SDS011;68091;52.130;5.570;2023-03-04T14:38:35;6.05;;;1.38;;
78549;SDS011;68091;52.130;5.570;2023-03-04T14:41:06;8.45;;;1.30;;
78549;SDS011;68091;52.130;5.570;2023-03-04T14:43:39;7.78;;;1.65;;
78549;SDS011;68091;52.130;5.570;2023-03-04T14:46:16;7.57;;;1.48;;
78549;SDS011;68091;52.130;5.570;2023-03-04T14:48:48;10.32;;;1.60;;
78549;SDS011;68091;52.130;5.570;2023-03-04T14:51:27;10.32;;;1.98;;
78549;SDS011;68091;52.130;5.570;2023-03-04T14:53:56;7.93;;;2.25;;
78549;SDS011;68091;52.130;5.570;2023-03-04T14:56:26;7.53;;;1.60;;
78549;SDS011;68091;52.130;5.570;2023-03-04T14:58:54;7.20;;;1.65;;
78549;SDS011;68091;52.130;5.570;2023-03-04T15:01:33;7.40;;;1.48;;
78549;SDS011;68091;52.130;5.570;2023-03-04T15:04:09;10.32;;;1.90;;
78549;SDS011;68091;52.130;5.570;2023-03-04T15:06:47;6.15;;;1.95;;
78549;SDS011;68091;52.130;5.570;2023-03-04T15:09:22;17.08;;;2.30;;
78549;SDS011;68091;52.130;5.570;2023-03-04T15:12:02;10.95;;;1.90;;
78549;SDS011;68091;52.130;5.570;2023-03-04T15:14:48;13.50;;;2.35;;
78549;SDS011;68091;52.130;5.570;2023-03-04T15:22:33;13.00;;;2.47;;
78549;SDS011;68091;52.130;5.570;2023-03-04T15:25:01;11.63;;;2.15;;
78549;SDS011;68091;52.130;5.570;2023-03-04T15:27:28;10.25;;;1.88;;
78549;SDS011;68091;52.130;5.570;2023-03-04T15:29:56;17.88;;;2.75;;
78549;SDS011;68091;52.130;5.570;2023-03-04T15:32:26;17.15;;;2.53;;
78549;SDS011;68091;52.130;5.570;2023-03-04T15:34:53;10.82;;;2.72;;
78549;SDS011;68091;52.130;5.570;2023-03-04T15:37:26;11.07;;;2.22;;
78549;SDS011;68091;52.130;5.570;2023-03-04T15:39:59;13.43;;;3.20;;
78549;SDS011;68091;52.130;5.570;2023-03-04T15:42:25;13.35;;;3.28;;
78549;SDS011;68091;52.130;5.570;2023-03-04T15:44:52;11.50;;;2.28;;
78549;SDS011;68091;52.130;5.570;2023-03-04T15:47:18;7.53;;;2.92;;
78549;SDS011;68091;52.130;5.570;2023-03-04T15:49:44;11.82;;;2.45;;
78549;SDS011;68091;52.130;5.570;2023-03-04T15:52:16;5.85;;;2.13;;
78549;SDS011;68091;52.130;5.570;2023-03-04T15:54:45;8.98;;;2.00;;
78549;SDS011;68091;52.130;5.570;2023-03-04T15:57:23;14.40;;;4.93;;
78549;SDS011;68091;52.130;5.570;2023-03-04T15:59:50;8.60;;;1.70;;
78549;SDS011;68091;52.130;5.570;2023-03-04T16:02:21;7.10;;;2.13;;
78549;SDS011;68091;52.130;5.570;2023-03-04T16:04:48;9.32;;;2.03;;
78549;SDS011;68091;52.130;5.570;2023-03-04T16:07:18;9.30;;;2.58;;
78549;SDS011;68091;52.130;5.570;2023-03-04T16:09:46;10.98;;;2.63;;
78549;SDS011;68091;52.130;5.570;2023-03-04T16:12:21;6.93;;;2.58;;
78549;SDS011;68091;52.130;5.570;2023-03-04T16:14:48;19.23;;;6.25;;
78549;SDS011;68091;52.130;5.570;2023-03-04T16:17:15;9.45;;;3.72;;
78549;SDS011;68091;52.130;5.570;2023-03-04T16:19:41;15.43;;;3.25;;
78549;SDS011;68091;52.130;5.570;2023-03-04T16:22:08;12.43;;;6.10;;
78549;SDS011;68091;52.130;5.570;2023-03-04T16:24:39;8.88;;;2.83;;
78549;SDS011;68091;52.130;5.570;2023-03-04T16:27:07;7.70;;;2.58;;
78549;SDS011;68091;52.130;5.570;2023-03-04T16:29:35;11.45;;;2.33;;
78549;SDS011;68091;52.130;5.570;2023-03-04T16:32:01;10.75;;;2.00;;
78549;SDS011;68091;52.130;5.570;2023-03-04T16:34:27;15.18;;;2.60;;
78549;SDS011;68091;52.130;5.570;2023-03-04T16:36:53;15.10;;;2.80;;
78549;SDS011;68091;52.130;5.570;2023-03-04T16:39:20;16.48;;;2.83;;
78549;SDS011;68091;52.130;5.570;2023-03-04T16:41:48;12.57;;;2.35;;
78549;SDS011;68091;52.130;5.570;2023-03-04T16:44:14;13.25;;;2.42;;
78549;SDS011;68091;52.130;5.570;2023-03-04T16:46:40;17.08;;;3.28;;
78549;SDS011;68091;52.130;5.570;2023-03-04T16:49:06;17.17;;;2.60;;
78549;SDS011;68091;52.130;5.570;2023-03-04T16:51:39;13.77;;;2.72;;
78549;SDS011;68091;52.130;5.570;2023-03-04T16:57:00;14.38;;;3.53;;
78549;SDS011;68091;52.130;5.570;2023-03-04T16:59:26;15.48;;;3.55;;
78549;SDS011;68091;52.130;5.570;2023-03-04T17:01:52;28.00;;;13.40;;
78549;SDS011;68091;52.130;5.570;2023-03-04T17:04:19;15.23;;;2.40;;
78549;SDS011;68091;52.130;5.570;2023-03-04T17:06:46;13.85;;;2.53;;
78549;SDS011;68091;52.130;5.570;2023-03-04T17:09:11;13.68;;;2.00;;
78549;SDS011;68091;52.130;5.570;2023-03-04T17:11:37;13.07;;;2.08;;
78549;SDS011;68091;52.130;5.570;2023-03-04T17:14:04;15.02;;;2.25;;
78549;SDS011;68091;52.130;5.570;2023-03-04T17:16:29;18.98;;;3.47;;
78549;SDS011;68091;52.130;5.570;2023-03-04T17:18:56;12.13;;;2.63;;
78549;SDS011;68091;52.130;5.570;2023-03-04T17:21:23;15.25;;;3.35;;
78549;SDS011;68091;52.130;5.570;2023-03-04T17:23:53;15.85;;;2.58;;
78549;SDS011;68091;52.130;5.570;2023-03-04T17:26:19;18.95;;;2.90;;
78549;SDS011;68091;52.130;5.570;2023-03-04T17:28:47;13.25;;;3.05;;